Disclaimer

Please do not use the information listed here in-flight or in-navigation, as they are not provided to us by the airports but are provided by volunteers, so they might be outdated.

Search


Regions


Airport information page

Radio informations:
RATULANGI TWR - 118.1 MHz
Automatic Terminal Information Service (ATIS) - 126.4 MHz
MANADO APP - 119.0 MHz

Airport informations:
Latitude: 01° 32' 58.01" N
Longitude: 124° 55' 33.16" E
Elevation: 264 feet - 80 meters
Operating hours: Remarks
Operating agency: Civil government, landing fees and diplomatic clearance may be required
Timezone: UTC+8
Fuel: 100/130 octane gasoline, leaded, MIL-L-5572F (GREEN)

Runway information:
18/36 - 8691 x 148 feet< - >2649 x 45 meters

Recent METARs:
WAMM 211830Z VRB01KT 9000 SCT022 25/24 Q1010 NOSIG
WAMM 211900Z VRB01KT 9000 SCT022 25/24 Q1009 NOSIG
WAMM 211930Z 00000KT 9000 SCT022 25/24 Q1009 NOSIG

Airport on the map: